Time;durP1;ratioP1;P1;durP2;ratioP2;P2;SDS_P1;SDS_P2;PMS_P1;PMS_P2;Temp;Humidity;BMP_temperature;BMP_pressure;BME280_temperature;BME280_humidity;BME280_pressure;Samples;Min_cycle;Max_cycle;Signal;HPM_P1;HPM_P2
2021/01/10 00:00:34;;;;;;;0.77;0.77;;;-0.80;99.90;;;;;;5114432;28;20202;-75
2021/01/10 00:03:00;;;;;;;0.80;0.65;;;-0.80;99.90;;;;;;5116082;28;20163;-75
2021/01/10 00:05:30;;;;;;;1.35;1.30;;;-0.80;99.90;;;;;;5114668;28;20201;-76
2021/01/10 00:07:57;;;;;;;3.58;3.25;;;-0.80;99.90;;;;;;5114563;28;20223;-75
2021/01/10 00:10:24;;;;;;;1.27;1.10;;;-1.00;99.90;;;;;;5114538;28;20271;-75
2021/01/10 00:12:50;;;;;;;2.17;2.10;;;-0.90;99.90;;;;;;5115915;28;20682;-74
2021/01/10 00:15:18;;;;;;;1.23;1.23;;;-0.90;99.90;;;;;;5114270;28;20242;-74
2021/01/10 00:17:48;;;;;;;0.77;0.77;;;-0.90;99.90;;;;;;5115606;28;20162;-75
2021/01/10 00:20:15;;;;;;;1.63;1.60;;;-0.80;99.90;;;;;;5114527;28;20571;-74
2021/01/10 00:22:41;;;;;;;2.15;2.05;;;-0.80;99.90;;;;;;5115748;28;20167;-73
2021/01/10 00:25:09;;;;;;;0.60;0.60;;;-0.80;99.90;;;;;;5115294;28;20171;-74
2021/01/10 00:27:36;;;;;;;0.73;0.73;;;-0.80;99.90;;;;;;5112857;28;20160;-76
2021/01/10 00:30:06;;;;;;;0.60;0.60;;;-0.80;99.90;;;;;;5115675;28;20187;-74
2021/01/10 00:32:31;;;;;;;4.10;1.65;;;-0.80;99.90;;;;;;5096981;28;20241;-73
2021/01/10 00:34:57;;;;;;;0.20;0.20;;;-0.90;99.90;;;;;;5095313;28;20164;-74
2021/01/10 00:37:23;;;;;;;0.88;0.88;;;-1.00;99.90;;;;;;5094067;28;20194;-74
2021/01/10 00:39:49;;;;;;;2.83;2.63;;;-1.20;99.90;;;;;;5094041;28;20188;-75
2021/01/10 00:42:15;;;;;;;0.77;0.77;;;-1.40;99.90;;;;;;5093930;28;20731;-75
2021/01/10 00:44:42;;;;;;;0.95;0.95;;;-1.30;99.90;;;;;;5093966;28;20632;-76
2021/01/10 00:47:09;;;;;;;2.20;2.00;;;-1.40;99.90;;;;;;5093906;28;20182;-75
2021/01/10 00:49:35;;;;;;;1.02;1.02;;;-1.40;99.90;;;;;;5095251;28;20184;-74
2021/01/10 00:52:02;;;;;;;1.63;1.55;;;-1.40;99.90;;;;;;5095097;28;20594;-75
2021/01/10 00:54:28;;;;;;;1.33;1.33;;;-1.40;99.90;;;;;;5095300;28;20157;-75
2021/01/10 00:56:55;;;;;;;0.10;0.10;;;-1.50;99.90;;;;;;5095226;28;20160;-75
2021/01/10 00:59:21;;;;;;;0.30;0.30;;;-1.70;99.90;;;;;;5093925;28;20254;-75
2021/01/10 01:01:46;;;;;;;0.90;0.90;;;-1.90;99.90;;;;;;5095157;28;20203;-75
2021/01/10 01:04:12;;;;;;;12.23;3.03;;;-1.70;99.90;;;;;;5093941;28;20191;-75
2021/01/10 01:06:38;;;;;;;0.55;0.55;;;-1.90;99.90;;;;;;5092635;28;20175;-75
2021/01/10 01:09:05;;;;;;;1.77;1.67;;;-1.90;99.90;;;;;;5090029;28;20266;-75
2021/01/10 01:11:35;;;;;;;0.32;0.32;;;-2.00;99.90;;;;;;5090563;28;20164;-75
2021/01/10 01:14:02;;;;;;;1.95;1.65;;;-2.20;99.90;;;;;;5090513;28;20174;-75
2021/01/10 01:16:28;;;;;;;0.20;0.20;;;-2.20;99.90;;;;;;5090632;28;20174;-75
2021/01/10 01:18:53;;;;;;;0.20;0.20;;;-2.20;99.90;;;;;;5090483;28;20172;-75
2021/01/10 01:21:20;;;;;;;0.63;0.63;;;-2.10;99.90;;;;;;5090370;28;20172;-75
2021/01/10 01:23:48;;;;;;;2.35;2.15;;;-2.10;99.90;;;;;;5091687;28;20373;-75
2021/01/10 01:26:21;;;;;;;2.28;2.17;;;-2.10;99.90;;;;;;5100412;28;20183;-75
2021/01/10 01:28:48;;;;;;;3.15;2.95;;;-2.00;99.90;;;;;;5110476;28;20192;-75
2021/01/10 01:31:16;;;;;;;6.53;2.50;;;-1.80;99.90;;;;;;5111808;28;20196;-75
2021/01/10 01:33:43;;;;;;;0.52;0.52;;;-1.80;99.90;;;;;;5111715;28;20152;-75
2021/01/10 01:36:17;;;;;;;1.08;1.08;;;-1.90;99.90;;;;;;5111705;28;20204;-75
2021/01/10 01:38:44;;;;;;;0.30;0.30;;;-1.90;99.90;;;;;;5110220;28;20187;-75
2021/01/10 01:41:11;;;;;;;1.30;1.30;;;-1.90;99.90;;;;;;5111279;28;20261;-76
2021/01/10 01:43:38;;;;;;;0.28;0.28;;;-1.90;99.90;;;;;;5111661;28;20172;-75
2021/01/10 01:46:06;;;;;;;0.50;0.50;;;-1.70;99.90;;;;;;5111407;28;20160;-75
2021/01/10 01:48:32;;;;;;;0.20;0.20;;;-1.70;99.90;;;;;;5111358;28;20151;-75
2021/01/10 01:50:59;;;;;;;0.93;0.93;;;-1.80;99.90;;;;;;5109871;28;20226;-75
2021/01/10 01:53:26;;;;;;;0.93;0.93;;;-1.70;99.90;;;;;;5110221;28;20174;-75
2021/01/10 01:55:54;;;;;;;0.22;0.22;;;-1.70;99.90;;;;;;5107336;28;20199;-75
2021/01/10 01:58:21;;;;;;;3.70;3.50;;;-1.60;99.90;;;;;;5090917;28;20175;-75
2021/01/10 02:00:47;;;;;;;0.20;0.20;;;-1.60;99.90;;;;;;5089049;28;21812;-75
2021/01/10 02:03:39;;;;;;;2.35;2.15;;;-1.60;99.90;;;;;;5089637;28;20160;-75
2021/01/10 02:06:16;;;;;;;0.52;0.52;;;-1.60;99.90;;;;;;5089512;28;20160;-74
2021/01/10 02:08:42;;;;;;;0.75;0.75;;;-1.50;99.90;;;;;;5089441;28;20182;-75
2021/01/10 02:11:11;;;;;;;2.45;2.35;;;-1.50;99.90;;;;;;5090580;28;20184;-75
2021/01/10 02:13:38;;;;;;;3.40;3.20;;;-1.50;99.90;;;;;;5089428;28;20168;-75
2021/01/10 02:16:05;;;;;;;0.77;0.77;;;-1.60;99.90;;;;;;5090708;28;20152;-75
2021/01/10 02:18:34;;;;;;;0.82;0.82;;;-1.60;99.90;;;;;;5089103;28;20161;-75
2021/01/10 02:21:06;;;;;;;1.27;1.27;;;-1.60;99.90;;;;;;5089305;28;20204;-75
2021/01/10 02:23:33;;;;;;;0.40;0.40;;;-1.60;99.90;;;;;;5089144;28;20164;-75
2021/01/10 02:26:01;;;;;;;2.20;2.10;;;-1.80;99.90;;;;;;5090388;28;20183;-75
2021/01/10 02:28:30;;;;;;;2.55;2.35;;;-1.90;99.90;;;;;;5090454;28;20160;-75
2021/01/10 02:30:57;;;;;;;1.15;1.05;;;-1.90;99.90;;;;;;5088948;28;20208;-75
2021/01/10 02:33:46;;;;;;;0.65;0.65;;;-1.80;99.90;;;;;;5090319;28;20163;-75
2021/01/10 02:36:24;;;;;;;0.85;0.82;;;-1.70;99.90;;;;;;5090230;28;20152;-75
2021/01/10 02:39:19;;;;;;;0.57;0.57;;;-1.50;99.90;;;;;;5090158;28;20186;-74
2021/01/10 02:42:06;;;;;;;0.93;0.93;;;-1.50;99.90;;;;;;5099147;28;20245;-75
2021/01/10 02:44:39;;;;;;;1.17;1.13;;;-1.50;99.90;;;;;;5110334;28;20156;-75
2021/01/10 02:47:06;;;;;;;0.25;0.25;;;-1.40;99.90;;;;;;5095717;28;20198;-75
2021/01/10 02:49:34;;;;;;;1.35;1.35;;;-1.30;99.90;;;;;;5089933;28;20200;-74
2021/01/10 02:52:00;;;;;;;2.08;2.00;;;-1.30;99.90;;;;;;5088713;28;20176;-75
2021/01/10 02:54:27;;;;;;;0.43;0.43;;;-1.20;99.90;;;;;;5088742;28;20719;-75
2021/01/10 02:56:52;;;;;;;1.88;1.77;;;-1.20;99.90;;;;;;5088547;28;20287;-75
2021/01/10 02:59:24;;;;;;;4.82;2.67;;;-1.20;99.90;;;;;;5089870;28;20168;-75
2021/01/10 03:01:51;;;;;;;1.63;1.52;;;-1.20;99.90;;;;;;5089773;28;20156;-75
2021/01/10 03:04:18;;;;;;;0.57;0.57;;;-1.20;99.90;;;;;;5089819;28;20673;-75
2021/01/10 03:06:45;;;;;;;0.30;0.30;;;-1.10;99.90;;;;;;5089729;28;20188;-75
2021/01/10 03:09:12;;;;;;;0.20;0.20;;;-1.10;99.90;;;;;;5088322;28;20223;-75
2021/01/10 03:11:40;;;;;;;2.20;2.10;;;-1.10;99.90;;;;;;5089702;28;20187;-74
2021/01/10 03:14:06;;;;;;;1.50;1.40;;;-1.10;99.90;;;;;;5089640;28;20152;-74
2021/01/10 03:16:33;;;;;;;0.65;0.65;;;-1.00;99.90;;;;;;5089460;28;20184;-75
2021/01/10 03:18:59;;;;;;;0.20;0.20;;;-1.00;99.90;;;;;;5088293;28;20182;-75
2021/01/10 03:21:25;;;;;;;0.68;0.68;;;-1.00;99.90;;;;;;5089564;28;20167;-75
2021/01/10 03:23:50;;;;;;;5.43;2.83;;;-1.00;99.90;;;;;;5088223;28;20176;-75
2021/01/10 03:26:16;;;;;;;2.25;2.08;;;-1.00;99.90;;;;;;5089418;28;20353;-75
2021/01/10 03:28:42;;;;;;;0.60;0.60;;;-1.00;99.90;;;;;;5088374;28;20239;-75
2021/01/10 03:31:09;;;;;;;0.35;0.32;;;-1.00;99.90;;;;;;5088950;28;20164;-75
2021/01/10 03:33:35;;;;;;;1.00;1.00;;;-1.00;99.90;;;;;;5089427;28;20205;-75
2021/01/10 03:36:01;;;;;;;1.58;1.58;;;-1.00;99.90;;;;;;5088109;28;20196;-75
2021/01/10 03:38:29;;;;;;;1.40;1.40;;;-1.00;99.90;;;;;;5089371;28;20164;-75
2021/01/10 03:40:55;;;;;;;0.80;0.65;;;-0.90;99.90;;;;;;5088019;28;20224;-75
2021/01/10 03:43:21;;;;;;;0.38;0.38;;;-0.90;99.90;;;;;;5087917;28;20254;-75
2021/01/10 03:45:47;;;;;;;0.63;0.63;;;-1.00;99.90;;;;;;5089062;28;20214;-75
2021/01/10 03:48:13;;;;;;;1.60;1.50;;;-1.10;99.90;;;;;;5089116;28;20163;-75
2021/01/10 03:50:39;;;;;;;3.30;1.85;;;-1.30;99.90;;;;;;5089068;28;20635;-75
2021/01/10 03:53:04;;;;;;;1.13;1.13;;;-1.30;99.90;;;;;;5089223;28;20221;-75
2021/01/10 03:55:30;;;;;;;0.90;0.90;;;-1.20;99.90;;;;;;5089164;28;20156;-75
2021/01/10 03:57:56;;;;;;;1.40;1.35;;;-1.20;99.90;;;;;;5089044;28;20180;-75
2021/01/10 04:00:21;;;;;;;2.42;2.28;;;-1.20;99.90;;;;;;5089049;28;20165;-75
2021/01/10 04:02:47;;;;;;;5.03;2.42;;;-1.20;99.90;;;;;;5089080;28;20168;-74
2021/01/10 04:05:13;;;;;;;1.20;1.10;;;-1.20;99.90;;;;;;5087742;28;20170;-75
2021/01/10 04:07:39;;;;;;;1.95;1.85;;;-1.30;99.90;;;;;;5089148;28;20187;-74
2021/01/10 04:10:05;;;;;;;1.85;1.75;;;-1.20;99.90;;;;;;5087644;28;20192;-75
2021/01/10 04:12:32;;;;;;;0.95;0.95;;;-1.20;99.90;;;;;;5101703;28;20195;-74
2021/01/10 04:14:58;;;;;;;1.90;1.75;;;-1.20;99.90;;;;;;5109183;28;20176;-75
2021/01/10 04:17:25;;;;;;;0.20;0.20;;;-1.00;99.90;;;;;;5093047;28;20692;-75
2021/01/10 04:19:55;;;;;;;2.63;2.20;;;-1.00;99.90;;;;;;5088849;28;20160;-74
2021/01/10 04:22:22;;;;;;;4.70;4.38;;;-0.90;99.90;;;;;;5088649;28;20164;-75
2021/01/10 04:24:48;;;;;;;1.67;1.58;;;-0.90;99.90;;;;;;5088862;28;20227;-75
2021/01/10 04:27:14;;;;;;;1.30;1.30;;;-0.90;99.90;;;;;;5088810;28;20203;-75
2021/01/10 04:29:40;;;;;;;0.45;0.45;;;-1.00;99.90;;;;;;5088796;28;20188;-75
2021/01/10 04:32:06;;;;;;;0.50;0.50;;;-1.00;99.90;;;;;;5100696;28;20214;-75
2021/01/10 04:34:32;;;;;;;1.30;1.27;;;-0.90;99.90;;;;;;5109075;28;20159;-74
2021/01/10 04:36:58;;;;;;;0.70;0.70;;;-0.80;99.90;;;;;;5096857;28;20200;-75
2021/01/10 04:39:24;;;;;;;1.17;1.17;;;-0.90;99.90;;;;;;5087544;28;20167;-75
2021/01/10 04:41:50;;;;;;;1.02;1.02;;;-0.80;99.90;;;;;;5086700;28;20235;-75
2021/01/10 04:44:16;;;;;;;0.32;0.32;;;-0.80;99.90;;;;;;5092127;28;20175;-75
2021/01/10 04:46:42;;;;;;;0.15;0.15;;;-0.80;99.90;;;;;;5091786;28;20203;-75
2021/01/10 04:49:09;;;;;;;2.45;2.10;;;-0.80;99.90;;;;;;5090997;28;20210;-75
2021/01/10 04:51:39;;;;;;;0.35;0.35;;;-0.90;99.90;;;;;;5092394;28;20165;-75
2021/01/10 04:54:07;;;;;;;4.45;3.90;;;-1.00;99.90;;;;;;5091061;28;20188;-75
2021/01/10 04:56:36;;;;;;;1.38;1.27;;;-1.00;99.90;;;;;;5092092;28;20187;-75
2021/01/10 04:59:04;;;;;;;0.82;0.82;;;-1.00;99.90;;;;;;5092108;28;20317;-75
2021/01/10 05:01:44;;;;;;;2.25;2.05;;;-1.00;99.90;;;;;;5092122;28;20160;-75
2021/01/10 05:04:11;;;;;;;0.43;0.43;;;-0.90;99.90;;;;;;5092048;28;20172;-76
2021/01/10 05:06:37;;;;;;;4.85;4.47;;;-0.90;99.90;;;;;;5090728;28;20267;-75
2021/01/10 05:09:07;;;;;;;0.57;0.57;;;-0.90;99.90;;;;;;5091814;28;20152;-75
2021/01/10 05:11:34;;;;;;;0.52;0.50;;;-0.80;99.90;;;;;;5090831;28;20179;-75
2021/01/10 05:13:59;;;;;;;0.47;0.47;;;-0.70;99.90;;;;;;5090665;28;20168;-74
2021/01/10 05:16:31;;;;;;;0.88;0.88;;;-0.70;99.90;;;;;;5091828;28;20192;-75
2021/01/10 05:18:58;;;;;;;0.63;0.63;;;-0.80;99.90;;;;;;5091831;28;20179;-75
2021/01/10 05:21:25;;;;;;;1.05;1.05;;;-0.90;99.90;;;;;;5090293;28;20222;-75
2021/01/10 05:23:55;;;;;;;1.83;1.73;;;-0.90;99.90;;;;;;5091766;28;20164;-75
2021/01/10 05:26:22;;;;;;;1.17;1.17;;;-1.00;99.90;;;;;;5090415;28;20214;-75
2021/01/10 05:28:51;;;;;;;1.38;1.35;;;-0.90;99.90;;;;;;5091496;28;20160;-75
2021/01/10 05:31:41;;;;;;;1.02;1.02;;;-0.80;99.90;;;;;;5091564;28;20293;-75
2021/01/10 05:34:15;;;;;;;1.67;1.58;;;-0.70;99.90;;;;;;5090326;28;20172;-75
2021/01/10 05:36:42;;;;;;;1.00;1.00;;;-0.60;99.90;;;;;;5091308;28;20184;-75
2021/01/10 05:39:19;;;;;;;1.73;1.65;;;-0.70;99.90;;;;;;5091426;28;20159;-75
2021/01/10 05:41:50;;;;;;;0.55;0.55;;;-0.70;99.90;;;;;;5091086;28;20241;-75
2021/01/10 05:44:16;;;;;;;2.00;1.90;;;-0.70;99.90;;;;;;5090115;28;20247;-75
2021/01/10 05:46:42;;;;;;;3.20;1.52;;;-0.70;99.90;;;;;;5089667;28;20195;-75
2021/01/10 05:49:17;;;;;;;2.83;2.50;;;-0.80;99.90;;;;;;5091134;28;20191;-75
2021/01/10 05:51:43;;;;;;;1.55;1.52;;;-0.80;99.90;;;;;;5089667;28;20195;-74
2021/01/10 05:54:09;;;;;;;0.55;0.55;;;-0.90;99.90;;;;;;5089413;28;20222;-75
2021/01/10 05:56:36;;;;;;;0.20;0.20;;;-0.90;99.90;;;;;;5091074;28;20152;-75
2021/01/10 05:59:02;;;;;;;1.45;1.45;;;-0.80;99.90;;;;;;5089732;28;20179;-75
2021/01/10 06:01:28;;;;;;;1.00;0.98;;;-0.80;99.90;;;;;;5091059;28;20196;-75
2021/01/10 06:03:53;;;;;;;1.20;1.20;;;-0.80;99.90;;;;;;5089678;28;20172;-74
2021/01/10 06:06:19;;;;;;;1.48;1.40;;;-0.80;99.90;;;;;;5090540;28;20203;-74
2021/01/10 06:08:46;;;;;;;0.75;0.50;;;-0.80;99.90;;;;;;5089645;28;20171;-75
2021/01/10 06:11:26;;;;;;;2.25;2.15;;;-0.80;99.90;;;;;;5089103;28;20218;-75
2021/01/10 06:14:03;;;;;;;0.85;0.82;;;-0.80;99.90;;;;;;5090805;28;20152;-75
2021/01/10 06:16:32;;;;;;;1.90;1.80;;;-0.90;99.90;;;;;;5090626;28;20195;-75
2021/01/10 06:19:11;;;;;;;0.63;0.63;;;-0.90;99.90;;;;;;5090670;28;20223;-75
2021/01/10 06:21:37;;;;;;;0.57;0.57;;;-0.90;99.90;;;;;;5090477;28;20585;-75
2021/01/10 06:24:05;;;;;;;0.30;0.30;;;-0.90;99.90;;;;;;5089316;28;20239;-75
2021/01/10 06:26:33;;;;;;;1.13;1.13;;;-0.80;99.90;;;;;;5089122;28;20274;-75
2021/01/10 06:29:00;;;;;;;1.10;1.10;;;-0.80;99.90;;;;;;5090346;28;20223;-75
2021/01/10 06:31:31;;;;;;;0.77;0.77;;;-0.70;99.90;;;;;;5090486;28;20156;-75
2021/01/10 06:34:00;;;;;;;2.58;2.22;;;-0.70;99.90;;;;;;5089232;28;20172;-74
2021/01/10 06:36:29;;;;;;;0.68;0.68;;;-0.60;99.90;;;;;;5088879;28;20220;-75
2021/01/10 06:39:01;;;;;;;0.55;0.55;;;-0.60;99.90;;;;;;5089038;28;20172;-75
2021/01/10 06:41:54;;;;;;;1.65;1.65;;;-0.60;99.90;;;;;;5089974;28;20156;-75
2021/01/10 06:44:21;;;;;;;1.52;1.52;;;-0.60;99.90;;;;;;5088849;28;20179;-75
2021/01/10 06:46:52;;;;;;;1.85;1.75;;;-0.60;99.90;;;;;;5088767;28;20198;-75
2021/01/10 06:49:18;;;;;;;0.20;0.20;;;-0.60;99.90;;;;;;5088820;28;20337;-75
2021/01/10 06:51:49;;;;;;;0.40;0.40;;;-0.50;99.90;;;;;;5090056;28;20164;-75
2021/01/10 06:54:15;;;;;;;2.47;2.35;;;-0.50;99.90;;;;;;5098334;28;20160;-75
2021/01/10 06:57:07;;;;;;;1.33;1.33;;;-0.50;99.90;;;;;;5110233;28;20189;-75
2021/01/10 07:00:00;;;;;;;1.85;1.73;;;-0.50;99.90;;;;;;5108562;28;20210;-75
2021/01/10 07:02:27;;;;;;;2.85;2.65;;;-0.50;99.90;;;;;;5095596;28;20221;-74
2021/01/10 07:04:56;;;;;;;1.63;1.52;;;-0.50;99.90;;;;;;5089109;28;20180;-75
2021/01/10 07:07:33;;;;;;;0.80;0.80;;;-0.40;99.90;;;;;;5089666;28;20184;-74
2021/01/10 07:09:58;;;;;;;1.17;1.17;;;-0.40;99.90;;;;;;5089589;28;20192;-75
2021/01/10 07:12:24;;;;;;;0.77;0.77;;;-0.40;99.90;;;;;;5089683;28;20191;-75
2021/01/10 07:14:50;;;;;;;1.60;1.52;;;-0.40;99.90;;;;;;5089639;28;20157;-75
2021/01/10 07:17:18;;;;;;;1.75;1.75;;;-0.40;99.90;;;;;;5089402;28;20541;-75
2021/01/10 07:19:46;;;;;;;2.10;1.73;;;-0.40;99.90;;;;;;5089496;28;20161;-75
2021/01/10 07:22:23;;;;;;;0.22;0.22;;;-0.50;99.90;;;;;;5088190;28;20168;-75
2021/01/10 07:24:49;;;;;;;0.60;0.60;;;-0.40;99.90;;;;;;5088240;28;20168;-75
2021/01/10 07:27:34;;;;;;;0.65;0.65;;;-0.30;99.90;;;;;;5088988;28;20195;-75
2021/01/10 07:30:21;;;;;;;0.32;0.32;;;-0.30;99.90;;;;;;5089409;28;20243;-75
2021/01/10 07:32:46;;;;;;;1.15;1.13;;;-0.20;99.90;;;;;;5089318;28;20234;-75
2021/01/10 07:35:12;;;;;;;0.57;0.57;;;-0.30;99.90;;;;;;5089312;28;20204;-75
2021/01/10 07:37:39;;;;;;;1.45;1.38;;;-0.30;99.90;;;;;;5087968;28;20192;-75
2021/01/10 07:40:09;;;;;;;0.77;0.77;;;-0.20;99.90;;;;;;5089288;28;20625;-74
2021/01/10 07:42:35;;;;;;;1.80;1.80;;;-0.30;99.90;;;;;;5088900;28;20219;-73
2021/01/10 07:45:17;;;;;;;1.20;1.20;;;-0.20;99.90;;;;;;5087925;28;20228;-73
2021/01/10 07:47:48;;;;;;;1.73;1.52;;;-0.20;99.90;;;;;;5089270;28;20188;-73
2021/01/10 07:50:18;;;;;;;1.08;1.08;;;-0.30;99.90;;;;;;5087888;28;20729;-73
2021/01/10 07:52:45;;;;;;;8.15;3.47;;;-0.30;99.90;;;;;;5087985;28;20515;-73
2021/01/10 07:55:19;;;;;;;0.30;0.30;;;-0.30;99.90;;;;;;5089299;28;20156;-73
2021/01/10 07:57:57;;;;;;;0.15;0.15;;;-0.20;99.90;;;;;;5089156;28;20190;-74
2021/01/10 08:00:31;;;;;;;2.60;2.47;;;-0.10;99.90;;;;;;5089407;28;20550;-73
2021/01/10 08:03:08;;;;;;;0.35;0.35;;;0.00;99.90;;;;;;5089197;28;20194;-73
2021/01/10 08:05:37;;;;;;;3.90;3.33;;;0.00;99.90;;;;;;5089280;28;20620;-74
2021/01/10 08:08:13;;;;;;;0.40;0.40;;;0.10;99.90;;;;;;5088963;28;20222;-73
2021/01/10 08:10:44;;;;;;;0.90;0.85;;;0.10;99.90;;;;;;5089215;28;20187;-73
2021/01/10 08:13:29;;;;;;;1.67;1.58;;;0.20;99.90;;;;;;5089091;28;20182;-73
2021/01/10 08:16:05;;;;;;;4.43;2.63;;;0.20;99.90;;;;;;5089058;28;20152;-73
2021/01/10 08:18:36;;;;;;;1.38;1.35;;;0.30;99.90;;;;;;5092815;28;20177;-73
2021/01/10 08:21:03;;;;;;;2.47;2.28;;;0.30;99.90;;;;;;5091713;28;20766;-73
2021/01/10 08:23:33;;;;;;;0.65;0.65;;;0.40;99.90;;;;;;5093141;28;20160;-73
2021/01/10 08:26:05;;;;;;;1.67;1.67;;;0.40;99.90;;;;;;5091630;28;20167;-74
2021/01/10 08:28:41;;;;;;;1.15;1.05;;;0.40;99.90;;;;;;5092974;28;20168;-73
2021/01/10 08:31:09;;;;;;;1.30;1.30;;;0.40;99.90;;;;;;5091515;28;20300;-73
2021/01/10 08:33:36;;;;;;;0.45;0.45;;;0.40;99.90;;;;;;5092744;28;20182;-72
2021/01/10 08:36:12;;;;;;;2.20;2.05;;;0.40;99.90;;;;;;5092690;28;20599;-73
2021/01/10 08:38:48;;;;;;;0.20;0.20;;;0.40;99.90;;;;;;5092734;28;20148;-73
2021/01/10 08:41:28;;;;;;;1.83;1.63;;;0.40;99.90;;;;;;5092263;28;20164;-73
2021/01/10 08:44:02;;;;;;;0.60;0.60;;;0.40;99.90;;;;;;5092205;28;20656;-73
2021/01/10 08:46:30;;;;;;;2.30;2.10;;;0.40;99.90;;;;;;5092454;28;20187;-73
2021/01/10 08:48:56;;;;;;;3.53;3.25;;;0.50;99.90;;;;;;5090931;28;20182;-73
2021/01/10 08:51:42;;;;;;;0.30;0.30;;;0.60;99.90;;;;;;5092304;28;20660;-73
2021/01/10 08:54:19;;;;;;;0.30;0.30;;;0.60;99.90;;;;;;5107178;28;20222;-73
2021/01/10 08:56:50;;;;;;;1.05;1.05;;;0.60;99.90;;;;;;5111454;28;20177;-73
2021/01/10 08:59:19;;;;;;;0.50;0.50;;;0.70;99.90;;;;;;5112192;28;20250;-73
2021/01/10 09:01:45;;;;;;;0.88;0.88;;;0.70;99.90;;;;;;5111063;28;20239;-73
2021/01/10 09:04:17;;;;;;;0.75;0.75;;;0.80;99.90;;;;;;5111149;28;20551;-73
2021/01/10 09:06:54;;;;;;;2.30;1.15;;;0.80;99.90;;;;;;5112576;28;20556;-73
2021/01/10 09:09:52;;;;;;;0.88;0.88;;;0.80;99.90;;;;;;5112280;28;20216;-74
2021/01/10 09:12:35;;;;;;;0.82;0.82;;;0.80;99.90;;;;;;5112214;28;20167;-73
2021/01/10 09:15:16;;;;;;;1.50;1.20;;;0.80;99.90;;;;;;5110980;28;20179;-73
2021/01/10 09:17:48;;;;;;;0.75;0.75;;;0.80;99.90;;;;;;5112223;28;20184;-73
2021/01/10 09:20:19;;;;;;;0.28;0.28;;;0.80;99.90;;;;;;5112325;28;20190;-72
2021/01/10 09:22:45;;;;;;;1.52;1.48;;;0.80;99.90;;;;;;5110634;28;20206;-72
2021/01/10 09:25:16;;;;;;;0.20;0.20;;;0.90;99.90;;;;;;5112243;28;20160;-72
2021/01/10 09:28:05;;;;;;;0.22;0.22;;;1.00;99.90;;;;;;5109558;28;20266;-73
2021/01/10 09:30:31;;;;;;;0.35;0.35;;;1.00;99.90;;;;;;5107673;28;20203;-73
2021/01/10 09:32:57;;;;;;;2.00;1.00;;;0.90;99.90;;;;;;5111962;28;20179;-73
2021/01/10 09:35:23;;;;;;;0.95;0.95;;;1.00;99.90;;;;;;5111752;28;20183;-73
2021/01/10 09:37:49;;;;;;;1.55;1.10;;;1.00;99.90;;;;;;5111839;28;20184;-73
2021/01/10 09:40:17;;;;;;;0.85;0.85;;;1.10;99.90;;;;;;5109898;28;20642;-73
2021/01/10 09:42:46;;;;;;;0.28;0.28;;;1.00;99.90;;;;;;5110287;28;20304;-73
2021/01/10 09:45:13;;;;;;;1.90;1.80;;;0.90;99.90;;;;;;5110251;28;20676;-73
2021/01/10 09:47:39;;;;;;;0.20;0.20;;;0.90;99.90;;;;;;5111650;28;20205;-74
2021/01/10 09:50:13;;;;;;;0.98;0.98;;;1.00;99.90;;;;;;5109960;28;20202;-72
2021/01/10 09:53:05;;;;;;;0.95;0.95;;;1.00;99.90;;;;;;5111591;28;20152;-74
2021/01/10 09:55:45;;;;;;;0.30;0.30;;;1.10;99.90;;;;;;5111143;28;20187;-74
2021/01/10 09:58:15;;;;;;;0.43;0.43;;;1.10;99.90;;;;;;5111305;28;20148;-74
2021/01/10 10:00:58;;;;;;;0.68;0.68;;;1.10;99.90;;;;;;5110133;28;20206;-73
2021/01/10 10:03:24;;;;;;;3.63;1.65;;;1.10;99.90;;;;;;5110067;28;20189;-73
2021/01/10 10:06:00;;;;;;;1.13;1.00;;;1.10;99.90;;;;;;5111230;28;20160;-73
2021/01/10 10:08:26;;;;;;;2.22;2.13;;;1.20;99.90;;;;;;5110783;28;20195;-73
2021/01/10 10:10:52;;;;;;;0.20;0.20;;;1.30;99.90;;;;;;5111309;28;20213;-73
2021/01/10 10:13:27;;;;;;;0.30;0.30;;;1.30;99.90;;;;;;5109624;28;20167;-74
2021/01/10 10:15:55;;;;;;;0.32;0.32;;;1.30;99.90;;;;;;5110646;28;20630;-73
2021/01/10 10:18:23;;;;;;;3.13;2.58;;;1.40;99.90;;;;;;5109797;28;20163;-72
2021/01/10 10:20:49;;;;;;;1.40;1.30;;;1.40;99.90;;;;;;5109706;28;20189;-74
2021/01/10 10:23:17;;;;;;;5.85;1.20;;;1.40;99.90;;;;;;5111031;28;20187;-74
2021/01/10 10:25:44;;;;;;;1.27;0.75;;;1.30;99.90;;;;;;5110956;28;20195;-74
2021/01/10 10:28:11;;;;;;;2.38;2.20;;;1.30;99.90;;;;;;5110730;28;20174;-74
2021/01/10 10:30:38;;;;;;;1.27;1.17;;;1.30;99.90;;;;;;5110949;28;20187;-74
2021/01/10 10:33:05;;;;;;;2.45;1.92;;;1.30;99.90;;;;;;5110884;28;20616;-74
2021/01/10 10:35:32;;;;;;;0.70;0.70;;;1.30;99.90;;;;;;5109167;28;20195;-74
2021/01/10 10:37:58;;;;;;;0.30;0.30;;;1.30;99.90;;;;;;5109567;28;20167;-73
2021/01/10 10:40:24;;;;;;;1.42;0.85;;;1.40;99.90;;;;;;5109361;28;20170;-73
2021/01/10 10:42:50;;;;;;;0.30;0.30;;;1.50;99.90;;;;;;5109041;28;20268;-73
2021/01/10 10:45:17;;;;;;;0.30;0.30;;;1.40;99.90;;;;;;5110527;28;20191;-73
2021/01/10 10:47:43;;;;;;;2.10;2.00;;;1.40;99.90;;;;;;5110581;28;20159;-73
2021/01/10 10:50:10;;;;;;;1.45;1.38;;;1.40;99.90;;;;;;5110293;28;20593;-73
2021/01/10 10:52:36;;;;;;;2.13;0.85;;;1.40;99.90;;;;;;5110532;28;20156;-74
2021/01/10 10:55:03;;;;;;;1.17;1.17;;;1.40;99.90;;;;;;5110235;28;20239;-74
2021/01/10 10:57:29;;;;;;;0.57;0.57;;;1.30;99.90;;;;;;5110384;28;20159;-74
2021/01/10 10:59:55;;;;;;;1.95;1.85;;;1.30;99.90;;;;;;5108857;28;20220;-74
2021/01/10 11:02:21;;;;;;;1.85;1.75;;;1.30;99.90;;;;;;5109005;28;20185;-73
2021/01/10 11:04:47;;;;;;;3.05;2.85;;;1.10;99.90;;;;;;5108737;28;20202;-73
2021/01/10 11:07:17;;;;;;;0.85;0.85;;;1.00;99.90;;;;;;5108941;28;20566;-73
2021/01/10 11:09:45;;;;;;;0.98;0.98;;;1.10;99.90;;;;;;5110163;28;20243;-73
2021/01/10 11:12:13;;;;;;;2.05;1.95;;;1.00;99.90;;;;;;5110036;28;20154;-73
2021/01/10 11:14:40;;;;;;;2.83;1.17;;;1.00;99.90;;;;;;5109859;28;20198;-73
2021/01/10 11:17:07;;;;;;;1.27;1.27;;;1.00;99.90;;;;;;5108727;28;20174;-73
2021/01/10 11:19:33;;;;;;;1.40;1.40;;;1.00;99.90;;;;;;5109865;28;20179;-73
2021/01/10 11:22:03;;;;;;;0.80;0.80;;;0.90;99.90;;;;;;5109973;28;20181;-73
2021/01/10 11:24:30;;;;;;;0.60;0.60;;;1.00;99.90;;;;;;5109244;28;20199;-73
2021/01/10 11:26:56;;;;;;;0.10;0.10;;;1.10;99.90;;;;;;5108467;28;20167;-73
2021/01/10 11:29:22;;;;;;;1.55;1.40;;;1.20;99.90;;;;;;5108370;28;20206;-73
2021/01/10 11:31:48;;;;;;;1.90;1.85;;;1.30;99.90;;;;;;5109764;28;20156;-74
2021/01/10 11:34:15;;;;;;;1.38;1.33;;;1.30;99.90;;;;;;5108514;28;20221;-73
2021/01/10 11:36:48;;;;;;;4.22;2.75;;;1.20;99.90;;;;;;5108301;28;20231;-74
2021/01/10 11:39:15;;;;;;;0.20;0.20;;;1.20;99.90;;;;;;5107089;28;20171;-74
2021/01/10 11:41:43;;;;;;;3.15;2.92;;;1.20;99.90;;;;;;5108445;28;20203;-74
2021/01/10 11:44:09;;;;;;;0.82;0.82;;;1.00;99.90;;;;;;5107604;28;20202;-73
2021/01/10 11:46:35;;;;;;;0.30;0.30;;;1.00;99.90;;;;;;5109284;28;20160;-74
2021/01/10 11:49:01;;;;;;;0.82;0.75;;;1.10;99.90;;;;;;5107328;28;20193;-74
2021/01/10 11:51:26;;;;;;;0.10;0.10;;;1.10;99.90;;;;;;5108606;28;20211;-73
2021/01/10 11:53:53;;;;;;;0.28;0.28;;;1.10;99.90;;;;;;5108727;28;20195;-74
2021/01/10 11:56:19;;;;;;;0.52;0.52;;;1.00;99.90;;;;;;5107902;28;20266;-74
2021/01/10 11:58:44;;;;;;;0.20;0.20;;;1.00;99.90;;;;;;5109374;28;20159;-73
2021/01/10 12:01:10;;;;;;;0.20;0.20;;;1.00;99.90;;;;;;5108055;28;20179;-74
2021/01/10 12:03:36;;;;;;;0.20;0.20;;;1.10;99.90;;;;;;5109340;28;20203;-74
2021/01/10 12:06:05;;;;;;;0.50;0.50;;;1.20;99.90;;;;;;5108036;28;20182;-74
2021/01/10 12:08:31;;;;;;;0.47;0.47;;;1.20;99.90;;;;;;5108065;28;20176;-74
2021/01/10 12:10:57;;;;;;;1.08;1.08;;;1.20;99.90;;;;;;5107750;28;20202;-74
2021/01/10 12:13:23;;;;;;;0.90;0.70;;;1.20;99.90;;;;;;5107727;28;20199;-74
2021/01/10 12:15:49;;;;;;;1.55;1.55;;;1.10;99.90;;;;;;5107984;28;20167;-74
2021/01/10 12:18:15;;;;;;;0.10;0.10;;;1.10;99.90;;;;;;5107246;28;20177;-74
2021/01/10 12:20:42;;;;;;;0.38;0.38;;;1.10;99.90;;;;;;5108941;28;20148;-74
2021/01/10 12:23:08;;;;;;;1.38;1.10;;;1.00;99.90;;;;;;5108955;28;20179;-74
2021/01/10 12:25:34;;;;;;;0.20;0.20;;;0.90;99.90;;;;;;5107957;28;20168;-73
2021/01/10 12:28:00;;;;;;;0.35;0.35;;;0.90;99.90;;;;;;5107586;28;20666;-74
2021/01/10 12:30:26;;;;;;;0.30;0.30;;;0.90;99.90;;;;;;5109258;28;20191;-74
2021/01/10 12:32:53;;;;;;;3.55;1.35;;;1.00;99.90;;;;;;5108795;28;20170;-73
2021/01/10 12:35:20;;;;;;;2.28;2.10;;;1.00;99.90;;;;;;5108833;28;20202;-73
2021/01/10 12:37:48;;;;;;;0.35;0.35;;;1.10;99.90;;;;;;5109049;28;20500;-73
2021/01/10 12:40:16;;;;;;;1.70;1.67;;;1.00;99.90;;;;;;5090073;28;20204;-73
2021/01/10 12:42:43;;;;;;;0.80;0.75;;;1.00;99.90;;;;;;5087075;28;20239;-73
2021/01/10 12:45:12;;;;;;;0.90;0.90;;;1.00;99.90;;;;;;5103976;28;20227;-73
2021/01/10 12:47:42;;;;;;;0.50;0.50;;;1.00;99.90;;;;;;5107391;28;20187;-73
2021/01/10 12:50:09;;;;;;;1.60;1.60;;;1.00;99.90;;;;;;5108743;28;20179;-73
2021/01/10 12:52:37;;;;;;;4.35;2.88;;;1.00;99.90;;;;;;5107665;28;20514;-73
2021/01/10 12:55:05;;;;;;;0.82;0.82;;;1.10;99.90;;;;;;5107520;28;20268;-73
2021/01/10 12:57:31;;;;;;;0.85;0.85;;;1.10;99.90;;;;;;5107586;28;20226;-73
2021/01/10 12:59:56;;;;;;;1.70;1.60;;;1.10;99.90;;;;;;5107661;28;20228;-73